To NAV CANADA Home Page Login to a new session Search on AWWS site Feedback and Comments Disclaimer Vers la page française équivalente Tips FAQ What's new on the site To the Forecasts and Observations / NOTAM section To "File a Flight Plan" website Publications and other links Update of the User's profile FIC Telephone Numbers My Weather Data Folder Route Weather Data Regional Weather Data Local Weather Data To the Forecasts and Observations / NOTAM section
Request Generated 02/24/2017 at 03:38:02 UTC . Weather information available at that time is displayed.

METAR/TAF

TALOYOAK/NU    

METAR CYYH 240300Z 16007KT 15SM IC FEW040 SCT100 M29/M33 A3016 RMK
SC2AC1 SLP221=
METAR CYYH 240200Z 16006KT 15SM IC FEW040 SCT100 M29/M33 A3017 RMK
SC2AC2 SLP224=
METAR CYYH 240100Z 14007KT 15SM IC FEW040 SCT100 SCT210 M30/M33 A3018
RMK SC2AC2CI1 CI TR SLP228=

TAF CYYH 232341Z 2400/2412 18005KT P6SM IC FEW040 SCT100
BECMG 2407/2409 VRB03KT
RMK NXT FCST BY 240600Z=
Your time UTC time
Weather data provided by Environment Canada and NAV CANADA